Aeroporto :
LOGIN :

Iscrizione | Disclaimer

   EN    FR    IT 

 










Sommario :    VFR   VFR Marginale   IFR   IFR Intensivo   IFR Molto Intensivo
Visibilità : 
Base nubi : 
>= 8 km
>= 3000ft
5 / 8 km
1000 / 3000 ft
1500m / 5 km
500 / 1000 ft
800 / 1500m
200 / 500 ft
< 800m
< 200 ft
Simboli :   Temporali  Nebbia  Neve Forte  Precipitazioni Forti  Vento > 20 kt
SIGMETs :   Varie  Temporali  Ghiacco  Turbolenza  Onda orograficha  Ceneri Vulcaniche






- Altitudine del aeroporto : 313 ft
- Codice IATA : LEH


LFOH - Le Havre Octeville

ULTIMO METAR :
  • 030130Z AUTO 35004KT 320V040 9999 FEW007 OVC064 09/07 Q1016

METARs OBSOLETI :
  • 030100Z AUTO 33007KT 300V360 CAVOK 09/07 Q1016
  • 030030Z AUTO 33008KT 300V360 CAVOK 08/07 Q1016
  • 030000Z AUTO 33010KT CAVOK 09/07 Q1016
  • 022330Z AUTO 33011KT CAVOK 09/07 Q1016
  • 022300Z AUTO 32009KT CAVOK 09/07 Q1016

TAF AMD TAF LFOH
Valido dal 02 a 16 ore il 03 a 12 ore UTC


021605Z 0216/0312 29010KT 9999 BKN040
TEMPO 0216/0218 BKN011 BKN040
PROB30
TEMPO 0220/0224 4000 RA BKN005 OVC030
BECMG 0303/0306 BKN005
ATIS : +33 2 35 54 64 93



MetMap, La meteo Aeronautica in un colpo d'occhio ! - Copyright ORBIFLY Dicembre 2007 - Disclaimer

ORBIFLY MET'MAP TEAM :

Programmazione e sviluppo : Alexandra Zaïnal
Concezione : Baudouin d'Aumeries
Aiuto per la programmazione : Marc-Olivier Méhu
Supporto tecnico e logistico : Manuel Goepfert
Aiuto per la traduzione : Arnaldo La Scala

Contatto : metmap@orbifly.com




FONTI E CREDITI :

   NOAA